Accueil
METAR-TAF:

METAR-TAF

Aéroports :

Base aérienne

Tulln an der Donau, Autriche

latitude: 48-19N, longitude: 016-07E, altitude: 175 m

METAR: absent

Heure: 11:09 (09:09 UTC)

Prévision

Le bulletin a été fait il y a 24 heures et 54 minutes, à 08:15 UTC
Prévision valable du 29 à 09 UTC au 29 à 18 UTC
Vent 10 kt de ouest/sud-ouest
Visibilité 10 km ou plus
Quelques nuages à une hauteur de 3000 ft
Nuages fragmentés à une hauteur de 5000 ft
Probabilité 40% :
Temporairement
du 29 à 10 UTC au 29 à 17 UTC
Quelques nuages à une hauteur de 3500 ft, Cumulus congestus.
Nuages fragmentés à une hauteur de 4000 ft
averses de pluie

TAF: LOXT 290815Z 2909/2918 24010KT 9999 FEW030 BKN050 PROB40 TEMPO 2910/2917 SHRA FEW035TCU BKN040

Observations et prévisions météorologiques de plus de 4000 aéroports (messages METAR et TAF).

Les stations disponibles sont représentées par des disques jaunes et rouges sur la carte.

Passer la souris dessus pour voir le nom de la station.

Cliquer dessus pour voir les observations et prévisions météorologiques.

Pour changer de carte: cliquez sur les boutons verts avec une croix noire pour zoomer, sur le bouton vert avec un tiret pour effectuer un zoom arrière, ou sur les flèches vertes pour les cartes adjacentes.


METAR-TAF: